Time;durP1;ratioP1;P1;durP2;ratioP2;P2;SDS_P1;SDS_P2;PMS_P1;PMS_P2;Temp;Humidity;BMP_temperature;BMP_pressure;BME280_temperature;BME280_humidity;BME280_pressure;Samples;Min_cycle;Max_cycle;Signal;HPM_P1;HPM_P2
2020/12/25 00:01:32;;;;;;;6.60;3.95;;;;;;;10.38;66.57;99199.97;4323014;33;34504;-90
2020/12/25 00:04:00;;;;;;;8.05;4.18;;;;;;;9.93;68.24;99196.97;4324246;33;34696;-90
2020/12/25 00:06:37;;;;;;;5.90;4.30;;;;;;;9.83;68.67;99198.38;4331788;33;34292;-90
2020/12/25 00:09:05;;;;;;;9.05;4.47;;;;;;;9.84;68.67;99197.44;4299018;33;32711;-90
2020/12/25 00:11:34;;;;;;;5.97;4.32;;;;;;;9.81;68.70;99184.38;4307604;33;34194;-88
2020/12/25 00:14:01;;;;;;;7.12;4.40;;;;;;;9.93;68.17;99180.28;4310137;33;32760;-90
2020/12/25 00:16:30;;;;;;;5.72;4.12;;;;;;;10.19;67.27;99178.94;4310268;33;34791;-91
2020/12/25 00:18:58;;;;;;;6.15;4.25;;;;;;;10.12;67.50;99172.28;4321863;33;32534;-90
2020/12/25 00:21:25;;;;;;;6.05;4.30;;;;;;;10.33;66.60;99176.47;4330901;33;33091;-91
2020/12/25 00:23:53;;;;;;;8.40;4.65;;;;;;;9.98;67.35;99184.41;4321791;33;33844;-91
2020/12/25 00:26:29;;;;;;;6.18;4.43;;;;;;;9.85;67.90;99191.22;4313618;33;32405;-91
2020/12/25 00:29:01;;;;;;;7.80;5.18;;;;;;;9.95;67.65;99189.81;4323694;33;32712;-91
2020/12/25 00:31:35;;;;;;;8.02;5.75;;;;;;;9.94;67.74;99169.66;4324217;33;35104;-91
2020/12/25 00:34:05;;;;;;;7.43;5.32;;;;;;;9.88;67.72;99177.87;4321101;33;33914;-91
2020/12/25 00:36:43;;;;;;;7.18;4.90;;;;;;;9.89;67.66;99186.66;4326035;33;32784;-91
2020/12/25 00:39:13;;;;;;;9.55;5.37;;;;;;;9.83;67.73;99185.19;4324042;33;33082;-90
2020/12/25 00:41:42;;;;;;;9.45;5.95;;;;;;;9.78;67.76;99183.69;4329999;33;33692;-90
2020/12/25 00:44:10;;;;;;;13.75;6.68;;;;;;;10.04;66.71;99185.84;4312005;33;32661;-91
2020/12/25 00:46:40;;;;;;;13.30;5.65;;;;;;;10.03;66.17;99184.16;4333170;33;33614;-90
2020/12/25 00:49:08;;;;;;;11.12;6.87;;;;;;;9.88;66.85;99196.34;4326794;33;33719;-91
2020/12/25 00:51:36;;;;;;;8.30;6.70;;;;;;;9.77;67.07;99182.81;4327258;33;35627;-89
2020/12/25 00:54:04;;;;;;;10.90;6.97;;;;;;;9.49;68.17;99184.22;4320947;33;33771;-89
2020/12/25 00:56:32;;;;;;;13.27;7.85;;;;;;;9.44;68.18;99187.97;4326833;33;33466;-91
2020/12/25 00:59:23;;;;;;;10.13;6.87;;;;;;;9.31;68.68;99192.16;4316873;33;34166;-91
2020/12/25 01:02:10;;;;;;;10.93;8.68;;;;;;;9.19;69.04;99204.12;4287694;33;33525;-91
2020/12/25 01:04:59;;;;;;;11.23;7.82;;;;;;;8.96;69.93;99224.50;4304315;33;32993;-92
2020/12/25 01:07:41;;;;;;;9.35;7.20;;;;;;;9.36;68.62;99220.00;4295399;33;32027;-91
2020/12/25 01:10:44;;;;;;;12.23;7.70;;;;;;;9.21;69.04;99218.09;4315064;33;32896;-91
2020/12/25 01:13:23;;;;;;;10.57;6.68;;;;;;;9.35;68.80;99222.69;4329912;33;33604;-90
2020/12/25 01:15:51;;;;;;;10.27;6.60;;;;;;;9.21;69.18;99220.72;4306757;33;32647;-92
2020/12/25 01:18:38;;;;;;;9.32;6.00;;;;;;;9.22;69.04;99220.66;4319427;33;32240;-92
2020/12/25 01:21:25;;;;;;;8.35;5.80;;;;;;;9.37;68.65;99220.84;4343047;33;35687;-91
2020/12/25 01:23:52;;;;;;;8.02;4.85;;;;;;;9.44;68.41;99238.91;4332876;33;33337;-91
2020/12/25 01:26:19;;;;;;;7.45;5.32;;;;;;;9.27;69.38;99246.78;4331823;33;32576;-88
2020/12/25 01:28:54;;;;;;;8.13;5.37;;;;;;;8.97;70.74;99230.59;4345070;33;32258;-90
2020/12/25 01:31:22;;;;;;;12.98;5.72;;;;;;;9.09;70.65;99231.84;4345496;32;33045;-93
2020/12/25 01:34:24;;;;;;;7.90;5.15;;;;;;;9.29;69.53;99229.09;4327215;33;33384;-85
2020/12/25 01:36:51;;;;;;;6.47;4.80;;;;;;;9.73;67.58;99223.44;4341394;33;33240;-85
2020/12/25 01:39:21;;;;;;;7.28;5.05;;;;;;;9.55;68.34;99234.94;4322082;33;33073;-85
2020/12/25 01:41:49;;;;;;;10.55;5.00;;;;;;;9.60;68.01;99235.56;4325208;33;33711;-85
2020/12/25 01:44:16;;;;;;;5.72;4.43;;;;;;;9.41;68.78;99244.34;4331309;32;32886;-85
2020/12/25 01:46:44;;;;;;;5.53;4.15;;;;;;;9.46;68.63;99238.84;4338761;33;33101;-85
2020/12/25 01:49:11;;;;;;;7.32;3.97;;;;;;;9.04;70.15;99245.22;4317397;33;32938;-85
2020/12/25 01:51:39;;;;;;;6.57;4.18;;;;;;;9.13;70.21;99243.94;4326581;33;33409;-85
2020/12/25 01:54:06;;;;;;;6.35;4.43;;;;;;;9.44;68.81;99233.63;4316545;33;32557;-85
2020/12/25 01:56:34;;;;;;;6.10;4.35;;;;;;;9.52;68.55;99235.91;4323982;33;32685;-85
2020/12/25 01:59:01;;;;;;;6.28;3.22;;;;;;;9.81;67.35;99239.75;4313705;33;33425;-85
2020/12/25 02:01:29;;;;;;;10.38;4.10;;;;;;;9.82;67.19;99230.91;4327633;33;32627;-85
2020/12/25 02:03:56;;;;;;;6.53;3.65;;;;;;;9.48;68.30;99235.19;4328152;33;34940;-85
2020/12/25 02:06:24;;;;;;;5.97;3.22;;;;;;;9.59;68.14;99239.09;4328988;33;34316;-85
2020/12/25 02:08:51;;;;;;;4.30;3.45;;;;;;;9.59;67.78;99234.69;4316404;33;32158;-85
2020/12/25 02:11:19;;;;;;;6.53;3.75;;;;;;;9.55;68.02;99234.94;4327620;33;32288;-85
2020/12/25 02:13:47;;;;;;;4.85;3.25;;;;;;;9.45;68.21;99239.78;4314733;33;33243;-85
2020/12/25 02:16:14;;;;;;;6.47;3.20;;;;;;;9.40;68.28;99236.50;4328602;33;33363;-85
2020/12/25 02:18:42;;;;;;;5.10;3.20;;;;;;;9.66;67.50;99227.34;4334531;33;33502;-85
2020/12/25 02:21:10;;;;;;;6.95;3.50;;;;;;;9.46;67.73;99228.31;4328089;33;33477;-85
2020/12/25 02:23:37;;;;;;;4.43;3.50;;;;;;;9.23;68.64;99239.94;4338120;33;33748;-85
2020/12/25 02:26:05;;;;;;;5.30;3.33;;;;;;;8.88;69.92;99234.53;4316547;33;32746;-85
2020/12/25 02:28:32;;;;;;;6.87;3.92;;;;;;;8.94;69.77;99239.50;4304410;33;31394;-85
2020/12/25 02:31:00;;;;;;;4.65;3.47;;;;;;;9.04;69.54;99242.56;4339373;33;33862;-85
2020/12/25 02:33:27;;;;;;;7.40;3.70;;;;;;;9.18;69.13;99249.84;4327503;33;33623;-84
2020/12/25 02:35:55;;;;;;;6.97;3.92;;;;;;;8.87;70.12;99248.59;4327769;33;34105;-85
2020/12/25 02:38:22;;;;;;;6.85;4.30;;;;;;;8.63;70.97;99257.59;4314570;33;32865;-85
2020/12/25 02:40:49;;;;;;;8.38;4.12;;;;;;;8.57;71.33;99258.75;4328102;33;33853;-85
2020/12/25 02:43:16;;;;;;;5.45;3.35;;;;;;;8.95;69.95;99245.63;4317265;33;34720;-85
2020/12/25 02:45:44;;;;;;;7.62;3.60;;;;;;;8.78;70.52;99246.37;4328061;33;33332;-85
2020/12/25 02:48:14;;;;;;;4.85;3.40;;;;;;;9.02;69.71;99254.97;4315822;33;33349;-85
2020/12/25 02:50:42;;;;;;;5.28;3.58;;;;;;;9.20;69.02;99247.97;4327043;33;33555;-85
2020/12/25 02:53:10;;;;;;;6.32;3.25;;;;;;;8.91;69.65;99247.53;4330940;33;34113;-85
2020/12/25 02:55:37;;;;;;;6.70;3.62;;;;;;;9.02;69.26;99248.81;4320110;33;32792;-86
2020/12/25 02:58:05;;;;;;;7.40;3.80;;;;;;;9.09;68.92;99247.63;4319644;33;34102;-85
2020/12/25 03:00:32;;;;;;;6.20;3.50;;;;;;;9.31;68.19;99258.88;4329346;33;33483;-85
2020/12/25 03:03:00;;;;;;;5.45;3.80;;;;;;;9.41;67.83;99254.03;4330633;33;33684;-85
2020/12/25 03:05:33;;;;;;;5.50;3.65;;;;;;;9.33;67.82;99262.28;4320370;33;33433;-85
2020/12/25 03:08:00;;;;;;;6.78;4.53;;;;;;;9.31;67.83;99263.31;4329885;33;32969;-85
2020/12/25 03:10:29;;;;;;;5.12;3.75;;;;;;;9.25;67.85;99269.69;4329685;33;32830;-85
2020/12/25 03:12:56;;;;;;;5.37;3.87;;;;;;;9.36;67.47;99262.16;4330630;33;34294;-85
2020/12/25 03:15:25;;;;;;;6.75;4.10;;;;;;;9.33;67.44;99261.44;4332387;33;33739;-86
2020/12/25 03:17:52;;;;;;;7.80;4.03;;;;;;;9.35;67.33;99263.09;4330280;33;32603;-86
2020/12/25 03:20:20;;;;;;;5.53;3.97;;;;;;;9.24;67.53;99266.19;4315935;33;33500;-86
2020/12/25 03:22:47;;;;;;;5.22;3.65;;;;;;;9.22;67.60;99260.16;4327697;33;32815;-86
2020/12/25 03:25:15;;;;;;;8.27;4.53;;;;;;;9.23;67.62;99255.75;4331149;33;33168;-86
2020/12/25 03:27:43;;;;;;;6.53;4.40;;;;;;;9.24;67.74;99252.19;4306751;33;32833;-86
2020/12/25 03:30:10;;;;;;;5.53;4.00;;;;;;;9.36;67.30;99246.34;4309553;33;33480;-85
2020/12/25 03:32:37;;;;;;;6.12;3.62;;;;;;;9.20;67.88;99261.16;4317583;33;32789;-86
2020/12/25 03:35:05;;;;;;;8.23;4.20;;;;;;;9.05;68.34;99246.06;4320758;33;32761;-86
2020/12/25 03:37:32;;;;;;;4.53;3.70;;;;;;;8.57;70.47;99250.00;4331239;33;32906;-85
2020/12/25 03:39:59;;;;;;;5.03;3.50;;;;;;;8.76;69.86;99245.63;4340775;33;32636;-86
2020/12/25 03:42:27;;;;;;;11.35;5.15;;;;;;;8.93;69.35;99234.34;4329878;33;34110;-86
2020/12/25 03:44:56;;;;;;;4.78;3.37;;;;;;;8.99;69.05;99239.31;4330875;33;33792;-86
2020/12/25 03:47:27;;;;;;;4.95;3.65;;;;;;;8.94;69.20;99234.25;4318239;33;32971;-84
2020/12/25 03:49:54;;;;;;;5.45;3.62;;;;;;;9.10;68.82;99238.81;4327196;33;33635;-85
2020/12/25 03:52:22;;;;;;;4.37;3.35;;;;;;;9.15;68.58;99242.91;4317757;33;35561;-84
2020/12/25 03:54:52;;;;;;;4.70;3.50;;;;;;;8.94;69.63;99243.94;4330705;33;32983;-83
2020/12/25 03:57:19;;;;;;;4.30;3.30;;;;;;;8.68;70.59;99243.31;4318910;33;34021;-84
2020/12/25 03:59:46;;;;;;;5.40;3.03;;;;;;;8.98;69.85;99234.97;4330859;33;32419;-84
2020/12/25 04:02:14;;;;;;;6.80;3.83;;;;;;;9.05;69.73;99228.47;4317819;33;33558;-84
2020/12/25 04:04:41;;;;;;;5.07;3.45;;;;;;;8.59;71.00;99221.81;4330984;33;32977;-84
2020/12/25 04:07:09;;;;;;;4.78;3.33;;;;;;;8.73;70.66;99227.31;4340394;33;33430;-83
2020/12/25 04:09:36;;;;;;;5.05;3.58;;;;;;;8.74;70.60;99234.31;4317486;33;33304;-83
2020/12/25 04:12:03;;;;;;;4.32;3.42;;;;;;;8.92;69.96;99229.97;4320308;33;32894;-84
2020/12/25 04:14:31;;;;;;;3.95;2.90;;;;;;;8.94;69.59;99238.66;4343193;33;34083;-83
2020/12/25 04:16:58;;;;;;;4.15;3.35;;;;;;;8.82;69.92;99237.44;4334503;33;33541;-84
2020/12/25 04:19:25;;;;;;;3.80;3.03;;;;;;;8.85;69.66;99237.31;4314836;33;33281;-84
2020/12/25 04:21:55;;;;;;;7.62;3.22;;;;;;;8.87;69.63;99238.06;4331075;33;33772;-83
2020/12/25 04:24:22;;;;;;;5.32;3.30;;;;;;;8.98;69.36;99229.69;4341085;33;33794;-83
2020/12/25 04:26:50;;;;;;;3.05;2.67;;;;;;;9.03;69.03;99235.59;4329348;33;32313;-83
2020/12/25 04:29:17;;;;;;;4.55;3.37;;;;;;;8.91;69.46;99230.91;4329214;33;33024;-83
2020/12/25 04:31:44;;;;;;;8.35;3.83;;;;;;;8.85;69.60;99236.44;4328961;33;33887;-83
2020/12/25 04:34:12;;;;;;;4.68;3.60;;;;;;;8.66;70.44;99233.78;4336645;33;33481;-84
2020/12/25 04:36:40;;;;;;;6.28;3.83;;;;;;;8.71;70.11;99231.81;4340762;33;32891;-83
2020/12/25 04:39:08;;;;;;;5.03;3.55;;;;;;;8.68;70.30;99238.06;4305734;33;34650;-84
2020/12/25 04:41:38;;;;;;;4.75;3.90;;;;;;;8.71;70.23;99231.81;4327561;33;33614;-83
2020/12/25 04:44:06;;;;;;;4.53;4.07;;;;;;;8.62;70.80;99234.84;4328077;33;35037;-83
2020/12/25 04:46:33;;;;;;;4.25;3.85;;;;;;;8.50;71.66;99243.28;4327718;33;31456;-84
2020/12/25 04:49:01;;;;;;;6.28;4.25;;;;;;;8.75;70.73;99243.91;4318718;33;34470;-83
2020/12/25 04:51:29;;;;;;;5.43;4.10;;;;;;;8.67;70.85;99249.50;4317085;33;32311;-83
2020/12/25 04:53:56;;;;;;;6.68;4.37;;;;;;;8.59;71.41;99242.88;4332420;33;33767;-83
2020/12/25 04:56:24;;;;;;;4.68;4.05;;;;;;;8.75;70.74;99243.06;4316962;33;32648;-84
2020/12/25 04:58:54;;;;;;;4.25;3.62;;;;;;;8.84;70.35;99248.75;4353719;32;33780;-84
2020/12/25 05:01:22;;;;;;;5.25;3.92;;;;;;;8.90;70.03;99252.88;4326693;33;33978;-83
2020/12/25 05:03:49;;;;;;;5.07;4.10;;;;;;;9.06;69.42;99240.72;4340731;33;32493;-83
2020/12/25 05:06:18;;;;;;;4.12;3.72;;;;;;;8.83;70.14;99230.38;4334431;33;32604;-85
2020/12/25 05:08:50;;;;;;;6.87;4.32;;;;;;;8.84;70.07;99238.22;4314447;33;33422;-84
2020/12/25 05:11:19;;;;;;;7.35;4.10;;;;;;;8.87;70.33;99245.97;4327253;33;34380;-84
2020/12/25 05:13:48;;;;;;;4.85;4.10;;;;;;;9.11;69.39;99245.78;4327525;33;33653;-84
2020/12/25 05:16:16;;;;;;;4.57;3.85;;;;;;;9.10;69.64;99249.34;4320393;33;32877;-84
2020/12/25 05:18:46;;;;;;;5.00;3.95;;;;;;;8.78;70.78;99248.16;4302966;33;33128;-84
2020/12/25 05:21:17;;;;;;;4.90;4.25;;;;;;;9.08;69.66;99245.94;4340290;33;33427;-85
2020/12/25 05:23:46;;;;;;;10.63;4.15;;;;;;;8.99;69.93;99247.22;4340013;33;34822;-85
2020/12/25 05:26:15;;;;;;;4.85;3.97;;;;;;;9.03;70.04;99242.66;4329037;33;34225;-85
2020/12/25 05:28:48;;;;;;;5.80;4.05;;;;;;;8.66;71.40;99246.97;4352169;32;34630;-84
2020/12/25 05:31:18;;;;;;;12.05;4.55;;;;;;;9.18;69.69;99247.22;4328721;33;33648;-84
2020/12/25 05:33:49;;;;;;;4.50;4.07;;;;;;;9.13;69.94;99250.06;4335757;32;34599;-84
2020/12/25 05:36:17;;;;;;;4.70;4.00;;;;;;;8.65;72.24;99248.75;4334239;32;33794;-85
2020/12/25 05:38:48;;;;;;;4.45;3.92;;;;;;;8.62;72.46;99242.75;4335161;33;33714;-85
2020/12/25 05:41:17;;;;;;;6.15;4.05;;;;;;;8.90;71.19;99237.94;4334250;33;33215;-85
2020/12/25 05:43:49;;;;;;;4.93;4.07;;;;;;;8.94;71.14;99242.16;4322828;33;33897;-85
2020/12/25 05:46:16;;;;;;;;;;;;;;;9.10;70.59;99229.13;4322028;33;34047;-85
2020/12/25 05:48:51;;;;;;;4.37;3.72;;;;;;;9.11;70.55;99224.69;4305905;33;33707;-85
2020/12/25 05:51:22;;;;;;;4.10;3.60;;;;;;;9.11;70.33;99224.69;4332725;33;33783;-85
2020/12/25 05:53:53;;;;;;;5.12;4.00;;;;;;;8.91;70.97;99229.13;4323162;33;34081;-84
2020/12/25 05:56:20;;;;;;;3.90;3.17;;;;;;;8.92;70.90;99224.69;4296525;33;32092;-84
2020/12/25 05:58:48;;;;;;;4.93;3.87;;;;;;;9.06;70.47;99235.44;4321312;33;33809;-85
2020/12/25 06:01:15;;;;;;;5.95;3.67;;;;;;;9.07;69.87;99238.94;4317578;33;33687;-85
2020/12/25 06:03:44;;;;;;;4.90;3.50;;;;;;;9.24;69.40;99236.38;4307598;33;33759;-85
2020/12/25 06:06:13;;;;;;;3.92;3.53;;;;;;;9.13;69.49;99238.66;4318931;33;33025;-85
2020/12/25 06:08:49;;;;;;;5.37;4.15;;;;;;;9.28;68.75;99242.34;4316531;33;33987;-84
2020/12/25 06:11:22;;;;;;;4.45;3.95;;;;;;;9.12;69.01;99247.50;4331662;33;30808;-84
2020/12/25 06:13:51;;;;;;;5.72;4.43;;;;;;;8.90;70.05;99239.72;4320503;33;32650;-86
2020/12/25 06:16:21;;;;;;;4.35;3.90;;;;;;;9.22;68.91;99248.78;4321077;33;33398;-85
2020/12/25 06:19:23;;;;;;;7.03;4.07;;;;;;;9.20;68.76;99237.44;4312168;33;32891;-85
2020/12/25 06:21:56;;;;;;;3.40;3.10;;;;;;;8.89;69.56;99238.87;4324461;33;33654;-85
2020/12/25 06:24:29;;;;;;;4.15;3.70;;;;;;;9.16;68.74;99243.78;4327585;33;35530;-85
2020/12/25 06:26:59;;;;;;;4.70;4.25;;;;;;;9.04;69.27;99244.38;4336583;33;34503;-85
2020/12/25 06:29:28;;;;;;;4.90;4.40;;;;;;;8.87;69.68;99245.97;4326322;33;33394;-85
2020/12/25 06:31:57;;;;;;;4.32;3.87;;;;;;;9.15;69.05;99253.47;4319131;33;32976;-86
2020/12/25 06:34:45;;;;;;;4.45;4.05;;;;;;;9.29;68.31;99247.53;4315681;33;32246;-85
2020/12/25 06:37:16;;;;;;;6.10;4.40;;;;;;;9.52;67.04;99246.47;4331604;33;30985;-85
2020/12/25 06:39:55;;;;;;;5.87;4.12;;;;;;;9.36;67.50;99245.50;4329031;33;33634;-84
2020/12/25 06:42:34;;;;;;;7.12;5.25;;;;;;;9.16;68.34;99243.78;4326236;33;33382;-84
2020/12/25 06:45:03;;;;;;;6.35;5.05;;;;;;;9.41;66.57;99243.50;4325696;33;33623;-84
2020/12/25 06:47:33;;;;;;;9.10;5.78;;;;;;;9.05;67.92;99246.06;4317024;33;31254;-84
2020/12/25 06:50:14;;;;;;;7.30;5.30;;;;;;;9.00;67.44;99234.88;4315815;33;33412;-84
2020/12/25 06:52:57;;;;;;;7.50;4.60;;;;;;;9.14;66.50;99240.38;4338572;33;34486;-85
2020/12/25 06:55:25;;;;;;;6.97;5.18;;;;;;;8.69;68.10;99241.56;4339884;33;32235;-86
2020/12/25 06:57:53;;;;;;;8.13;5.95;;;;;;;9.12;66.24;99253.63;4339303;33;32850;-85
2020/12/25 07:00:22;;;;;;;6.72;5.82;;;;;;;8.77;67.91;99249.94;4328340;33;31602;-87
2020/12/25 07:02:50;;;;;;;6.22;5.15;;;;;;;8.87;67.18;99247.75;4319930;33;33728;-85
2020/12/25 07:05:17;;;;;;;6.45;5.07;;;;;;;8.79;67.49;99252.53;4327872;33;33631;-85
2020/12/25 07:07:48;;;;;;;6.10;5.07;;;;;;;8.37;68.72;99264.03;4313874;33;33345;-85
2020/12/25 07:10:16;;;;;;;5.15;4.55;;;;;;;8.78;67.36;99254.28;4326944;33;33027;-85
2020/12/25 07:12:44;;;;;;;9.10;5.47;;;;;;;8.64;67.63;99275.97;4313652;33;32851;-85
2020/12/25 07:15:11;;;;;;;8.07;5.07;;;;;;;8.27;68.66;99273.22;4338791;32;32029;-85
2020/12/25 07:17:40;;;;;;;5.75;4.60;;;;;;;8.45;67.47;99261.91;4314809;33;32054;-86
2020/12/25 07:20:08;;;;;;;6.80;4.57;;;;;;;8.05;69.11;99281.97;4314144;33;32974;-86
2020/12/25 07:22:36;;;;;;;5.75;4.40;;;;;;;8.46;67.01;99272.38;4317430;33;34808;-85
2020/12/25 07:25:08;;;;;;;5.30;4.68;;;;;;;8.46;66.83;99272.38;4327300;33;34275;-86
2020/12/25 07:27:35;;;;;;;4.72;3.85;;;;;;;8.28;67.70;99277.53;4324885;33;35251;-85
2020/12/25 07:30:04;;;;;;;4.30;3.62;;;;;;;8.26;66.71;99287.25;4315039;33;32789;-85
2020/12/25 07:32:32;;;;;;;5.62;3.12;;;;;;;8.41;65.42;99284.03;4324507;33;34205;-85
2020/12/25 07:35:05;;;;;;;4.25;3.75;;;;;;;8.59;64.16;99287.59;4336266;32;32116;-85
2020/12/25 07:37:33;;;;;;;4.35;3.60;;;;;;;8.46;64.06;99288.16;4317509;33;33287;-85
2020/12/25 07:40:07;;;;;;;4.50;3.65;;;;;;;7.99;65.12;99295.38;4324437;33;33826;-85
2020/12/25 07:42:34;;;;;;;5.95;3.17;;;;;;;7.89;66.40;99305.44;4351839;32;33871;-85
2020/12/25 07:45:02;;;;;;;4.97;2.95;;;;;;;7.80;65.11;99303.16;4326576;33;33849;-85
2020/12/25 07:47:29;;;;;;;4.82;2.97;;;;;;;8.14;64.14;99309.69;4325638;33;33842;-85
2020/12/25 07:50:00;;;;;;;4.90;2.70;;;;;;;7.98;63.16;99317.34;4326873;33;34183;-84
2020/12/25 07:52:28;;;;;;;2.75;2.55;;;;;;;8.03;63.61;99317.16;4328067;33;34068;-84
2020/12/25 07:55:19;;;;;;;2.97;2.28;;;;;;;7.98;63.00;99319.12;4327262;33;32638;-84
2020/12/25 07:57:47;;;;;;;2.28;2.05;;;;;;;7.63;64.42;99318.75;4327828;33;33260;-84
2020/12/25 08:00:14;;;;;;;5.18;2.70;;;;;;;7.61;63.92;99325.84;4302868;33;34463;-84
2020/12/25 08:02:42;;;;;;;3.70;2.60;;;;;;;7.65;63.41;99328.28;4339079;32;33682;-84
2020/12/25 08:05:10;;;;;;;2.50;2.08;;;;;;;7.54;64.55;99340.13;4332604;33;33179;-85
2020/12/25 08:07:42;;;;;;;4.30;2.97;;;;;;;7.81;63.13;99339.03;4325661;33;32572;-85
2020/12/25 08:10:12;;;;;;;3.53;2.35;;;;;;;7.90;61.56;99343.94;4326564;33;32815;-85
2020/12/25 08:12:51;;;;;;;3.22;2.92;;;;;;;7.32;63.65;99354.09;4327391;33;32906;-85
2020/12/25 08:15:19;;;;;;;3.00;2.65;;;;;;;7.54;62.65;99361.13;4328027;33;33675;-84
2020/12/25 08:17:48;;;;;;;4.40;3.37;;;;;;;7.50;62.83;99362.16;4329390;33;33037;-84
2020/12/25 08:20:15;;;;;;;3.87;2.78;;;;;;;7.85;61.46;99368.69;4348615;32;33256;-86
2020/12/25 08:22:43;;;;;;;5.40;2.90;;;;;;;7.87;61.47;99367.72;4330542;33;33781;-84
2020/12/25 08:25:10;;;;;;;4.35;2.85;;;;;;;7.80;62.21;99368.87;4327212;33;32353;-85
2020/12/25 08:27:38;;;;;;;4.68;2.58;;;;;;;7.71;61.87;99371.88;4332144;33;33599;-85
2020/12/25 08:30:06;;;;;;;5.43;3.85;;;;;;;7.94;61.11;99371.81;4338361;33;33808;-85
2020/12/25 08:32:34;;;;;;;3.42;2.67;;;;;;;7.32;62.90;99371.62;4329310;33;33151;-85
2020/12/25 08:35:13;;;;;;;4.05;2.90;;;;;;;7.53;62.30;99375.19;4332878;33;33314;-85
2020/12/25 08:37:53;;;;;;;5.37;3.42;;;;;;;7.05;64.61;99378.72;4332924;33;32934;-85
2020/12/25 08:40:22;;;;;;;4.75;2.90;;;;;;;7.40;63.36;99375.66;4333154;33;34554;-85
2020/12/25 08:43:28;;;;;;;6.60;2.85;;;;;;;7.71;61.92;99385.00;4336410;33;33871;-84
2020/12/25 08:46:02;;;;;;;3.87;3.03;;;;;;;7.74;61.36;99389.25;4345014;33;32982;-85
2020/12/25 08:48:31;;;;;;;8.52;3.87;;;;;;;7.41;62.90;99394.91;4334212;33;33092;-85
2020/12/25 08:51:09;;;;;;;4.65;4.18;;;;;;;7.57;61.95;99397.81;4332624;33;33782;-85
2020/12/25 08:53:48;;;;;;;4.62;3.80;;;;;;;7.75;61.75;99396.25;4332511;33;33527;-85
2020/12/25 08:56:20;;;;;;;5.95;4.70;;;;;;;7.48;62.24;99377.13;4333039;33;34662;-85
2020/12/25 08:59:02;;;;;;;3.72;3.12;;;;;;;7.52;62.34;99373.50;4335403;33;32902;-85
2020/12/25 09:01:34;;;;;;;4.45;3.45;;;;;;;7.61;62.05;99383.66;4345103;33;33279;-88
2020/12/25 09:04:03;;;;;;;5.75;3.62;;;;;;;7.41;62.95;99382.63;4333378;33;32497;-87
2020/12/25 09:06:30;;;;;;;5.12;3.67;;;;;;;7.27;62.87;99387.53;4309926;33;33266;-87
2020/12/25 09:08:58;;;;;;;5.53;4.00;;;;;;;6.99;64.74;99378.94;4325076;33;33682;-87
2020/12/25 09:11:26;;;;;;;4.15;3.72;;;;;;;6.89;66.30;99389.78;4320940;33;33870;-87
2020/12/25 09:13:54;;;;;;;7.00;4.37;;;;;;;7.15;64.67;99395.84;4325791;33;33141;-87
2020/12/25 09:16:21;;;;;;;5.15;4.18;;;;;;;7.17;64.54;99394.03;4331138;33;34361;-86
2020/12/25 09:18:49;;;;;;;6.07;3.83;;;;;;;7.34;63.46;99406.53;4317426;33;33130;-86
2020/12/25 09:21:16;;;;;;;5.97;4.60;;;;;;;7.57;62.40;99406.53;4325196;33;32754;-86
2020/12/25 09:23:43;;;;;;;6.50;4.78;;;;;;;7.15;65.11;99401.09;4311568;33;33036;-86
2020/12/25 09:26:13;;;;;;;6.65;4.45;;;;;;;7.38;63.64;99390.63;4325002;33;33308;-86
2020/12/25 09:28:41;;;;;;;6.65;4.78;;;;;;;7.61;62.67;99395.00;4329206;33;33031;-86
2020/12/25 09:31:11;;;;;;;9.15;5.57;;;;;;;7.34;64.65;99396.88;4320478;33;33395;-86
2020/12/25 09:33:39;;;;;;;10.43;8.85;;;;;;;7.34;64.39;99396.88;4342446;33;33731;-86
2020/12/25 09:36:08;;;;;;;6.47;5.78;;;;;;;7.54;63.91;99400.53;4308505;33;32339;-86
2020/12/25 09:38:42;;;;;;;7.22;5.68;;;;;;;7.68;63.30;99403.50;4309140;33;33255;-88
2020/12/25 09:41:35;;;;;;;6.80;5.00;;;;;;;7.70;62.94;99406.94;4314622;33;32981;-86
2020/12/25 09:44:02;;;;;;;6.72;4.68;;;;;;;7.86;62.63;99397.53;4332513;33;33615;-86
2020/12/25 09:46:30;;;;;;;8.00;5.10;;;;;;;8.12;61.31;99393.03;4332451;33;32797;-85
2020/12/25 09:48:57;;;;;;;11.40;5.65;;;;;;;8.21;61.06;99390.00;4310999;33;33154;-84
2020/12/25 09:51:24;;;;;;;10.27;7.93;;;;;;;8.08;61.27;99404.59;4321946;33;33507;-85
2020/12/25 09:53:52;;;;;;;12.30;10.25;;;;;;;7.52;64.36;99394.50;4316747;33;33040;-83
2020/12/25 09:56:19;;;;;;;20.88;10.55;;;;;;;7.78;62.89;99390.87;4328372;33;33365;-82
2020/12/25 09:58:46;;;;;;;11.85;7.25;;;;;;;7.77;63.00;99387.38;4335392;33;33434;-83
2020/12/25 10:01:14;;;;;;;9.23;7.45;;;;;;;7.79;63.43;99385.56;4329022;33;33962;-82
2020/12/25 10:03:42;;;;;;;24.17;19.67;;;;;;;7.48;64.53;99382.41;4344312;33;33017;-82
2020/12/25 10:06:09;;;;;;;11.73;9.80;;;;;;;8.04;62.39;99380.19;4333477;33;33378;-82
2020/12/25 10:08:36;;;;;;;6.15;4.07;;;;;;;8.08;62.07;99370.41;4334485;33;33461;-82
2020/12/25 10:11:04;;;;;;;6.43;5.75;;;;;;;8.19;61.35;99376.09;4340858;33;33435;-82
2020/12/25 10:13:31;;;;;;;7.30;4.97;;;;;;;7.98;62.33;99398.84;4325307;33;33855;-82
2020/12/25 10:15:58;;;;;;;5.75;4.95;;;;;;;7.54;65.08;99383.00;4333016;33;32659;-82
2020/12/25 10:18:26;;;;;;;7.37;5.10;;;;;;;7.80;63.55;99379.41;4323438;33;33276;-82
2020/12/25 10:20:53;;;;;;;7.75;4.95;;;;;;;7.72;63.60;99376.19;4337319;33;33401;-82
2020/12/25 10:23:20;;;;;;;6.97;4.80;;;;;;;8.05;62.11;99388.94;4334830;33;36079;-82
2020/12/25 10:25:48;;;;;;;8.85;5.45;;;;;;;7.94;62.23;99403.38;4326768;33;33761;-82
2020/12/25 10:28:16;;;;;;;6.43;5.15;;;;;;;7.98;62.37;99403.25;4331646;33;33390;-82
2020/12/25 10:30:43;;;;;;;7.07;4.50;;;;;;;7.88;63.08;99416.75;4310178;33;33059;-82
2020/12/25 10:33:10;;;;;;;6.75;4.55;;;;;;;8.17;61.72;99404.22;4324550;33;34466;-82
2020/12/25 10:35:37;;;;;;;5.65;4.53;;;;;;;8.20;61.82;99402.31;4342365;33;34618;-82
2020/12/25 10:38:05;;;;;;;8.13;6.05;;;;;;;8.18;62.05;99396.28;4342165;33;33084;-83
2020/12/25 10:40:32;;;;;;;6.80;4.72;;;;;;;7.76;64.28;99404.06;4339785;33;33712;-82
2020/12/25 10:43:00;;;;;;;5.25;4.55;;;;;;;7.97;62.53;99402.38;4316064;33;33572;-82
2020/12/25 10:45:27;;;;;;;7.03;4.78;;;;;;;7.90;63.35;99407.03;4323128;33;33969;-82
2020/12/25 10:47:55;;;;;;;5.50;4.37;;;;;;;7.88;63.28;99402.72;4334942;33;32958;-82
2020/12/25 10:50:22;;;;;;;7.50;4.50;;;;;;;7.84;63.03;99407.28;4331028;33;34318;-82
2020/12/25 10:52:50;;;;;;;5.97;4.47;;;;;;;7.91;62.90;99400.84;4335233;33;33539;-82
2020/12/25 10:55:17;;;;;;;5.25;4.32;;;;;;;7.96;62.47;99406.78;4334480;33;34431;-82
2020/12/25 10:57:45;;;;;;;5.30;4.03;;;;;;;8.03;62.63;99411.81;4355631;32;34104;-82
2020/12/25 11:00:12;;;;;;;6.15;4.37;;;;;;;8.11;62.62;99412.34;4343667;33;33613;-82
2020/12/25 11:02:40;;;;;;;6.90;4.40;;;;;;;8.11;62.44;99400.06;4333375;33;34772;-82
2020/12/25 11:05:07;;;;;;;6.32;3.72;;;;;;;8.25;61.30;99398.66;4339446;33;33464;-82
2020/12/25 11:07:34;;;;;;;4.95;3.95;;;;;;;8.05;61.91;99404.72;4328055;33;32345;-82
2020/12/25 11:10:02;;;;;;;4.53;3.45;;;;;;;8.05;62.22;99404.72;4323709;33;33759;-83
2020/12/25 11:12:29;;;;;;;4.85;3.85;;;;;;;8.17;61.30;99404.22;4341348;33;34054;-82
2020/12/25 11:14:57;;;;;;;5.45;4.03;;;;;;;8.13;62.19;99398.22;4318257;33;34120;-82
2020/12/25 11:17:24;;;;;;;4.25;3.10;;;;;;;8.06;61.97;99398.53;4325782;33;33113;-82
2020/12/25 11:19:55;;;;;;;4.70;3.17;;;;;;;8.20;60.63;99385.69;4339390;33;32482;-82
2020/12/25 11:22:23;;;;;;;7.67;3.80;;;;;;;7.99;60.82;99383.94;4345290;33;33596;-82
2020/12/25 11:24:52;;;;;;;4.25;3.37;;;;;;;8.16;60.82;99387.56;4314500;33;33567;-82
2020/12/25 11:27:19;;;;;;;5.10;3.50;;;;;;;8.20;60.15;99399.69;4330594;33;32522;-82
2020/12/25 11:29:46;;;;;;;3.90;3.53;;;;;;;8.34;60.11;99401.75;4318250;33;33650;-82
2020/12/25 11:32:15;;;;;;;7.25;4.32;;;;;;;8.47;60.21;99394.25;4327394;33;34904;-82
2020/12/25 11:34:42;;;;;;;4.12;3.30;;;;;;;8.43;60.61;99393.53;4328221;33;33906;-82
2020/12/25 11:37:09;;;;;;;4.80;4.10;;;;;;;8.31;60.37;99385.22;4316779;33;31463;-82
2020/12/25 11:39:37;;;;;;;8.63;3.60;;;;;;;8.21;61.02;99375.13;4328622;33;33713;-82
2020/12/25 11:42:04;;;;;;;6.32;4.15;;;;;;;8.09;61.18;99382.63;4334338;33;34703;-82
2020/12/25 11:44:31;;;;;;;5.53;3.97;;;;;;;8.01;61.39;99385.56;4315636;33;33224;-82
2020/12/25 11:46:59;;;;;;;12.40;7.55;;;;;;;8.08;61.49;99378.31;4336067;33;34438;-82
2020/12/25 11:49:26;;;;;;;8.25;4.75;;;;;;;8.22;60.88;99365.44;4331191;33;33512;-82
2020/12/25 11:51:56;;;;;;;6.53;4.60;;;;;;;8.17;60.72;99372.69;4327806;33;33296;-82
2020/12/25 11:54:24;;;;;;;5.32;3.62;;;;;;;8.24;60.36;99365.38;4341552;33;33733;-82